createdAt,value
2022-10-29T00:01:26.023Z,18.20
2022-10-29T00:03:53.849Z,18.00
2022-10-29T00:06:21.543Z,17.80
2022-10-29T00:08:49.289Z,17.90
2022-10-29T00:11:19.928Z,17.90
2022-10-29T00:13:48.670Z,18.00
2022-10-29T00:16:20.329Z,17.60
2022-10-29T00:18:48.573Z,17.60
2022-10-29T00:21:17.910Z,17.40
2022-10-29T00:23:46.369Z,17.60
2022-10-29T00:26:14.512Z,17.20
2022-10-29T00:28:42.432Z,17.40
2022-10-29T00:31:12.993Z,17.50
2022-10-29T00:33:42.270Z,17.20
2022-10-29T00:36:12.281Z,17.20
2022-10-29T00:38:40.145Z,16.90
2022-10-29T00:41:11.503Z,17.10
2022-10-29T00:43:40.118Z,16.90
2022-10-29T00:46:10.327Z,17.00
2022-10-29T00:48:44.381Z,16.80
2022-10-29T00:51:14.890Z,17.10
2022-10-29T00:53:46.108Z,16.90
2022-10-29T00:56:14.871Z,17.00
2022-10-29T00:58:42.731Z,16.90
2022-10-29T01:01:10.949Z,17.00
2022-10-29T01:03:39.573Z,17.00
2022-10-29T01:06:09.757Z,16.80
2022-10-29T01:08:37.657Z,16.70
2022-10-29T01:11:17.001Z,17.00
2022-10-29T01:14:04.402Z,17.00
2022-10-29T01:16:43.955Z,17.00
2022-10-29T01:19:18.272Z,16.60
2022-10-29T01:21:52.738Z,16.80
2022-10-29T01:24:52.958Z,16.70
2022-10-29T01:27:53.063Z,16.90
2022-10-29T01:30:26.863Z,16.80
2022-10-29T01:33:08.595Z,17.10
2022-10-29T01:35:48.124Z,16.70
2022-10-29T01:38:25.302Z,16.90
2022-10-29T01:41:01.270Z,16.70
2022-10-29T01:43:31.872Z,16.80
2022-10-29T01:46:05.343Z,16.70
2022-10-29T01:48:38.087Z,17.30
2022-10-29T01:51:12.346Z,16.80
2022-10-29T01:53:40.635Z,17.00
2022-10-29T01:56:08.656Z,17.20
2022-10-29T01:58:37.631Z,16.90
2022-10-29T02:01:16.600Z,16.80
2022-10-29T02:03:53.589Z,17.00
2022-10-29T02:06:30.064Z,16.80
2022-10-29T02:09:06.054Z,16.90
2022-10-29T02:11:41.310Z,16.90
2022-10-29T02:14:13.390Z,16.70
2022-10-29T02:16:41.717Z,16.80
2022-10-29T02:19:10.775Z,17.00
2022-10-29T02:21:40.290Z,16.60
2022-10-29T02:24:08.806Z,16.80
2022-10-29T02:26:36.553Z,16.90
2022-10-29T02:29:04.355Z,16.80
2022-10-29T02:31:32.047Z,16.50
2022-10-29T02:33:59.778Z,17.10
2022-10-29T02:36:28.803Z,17.00
2022-10-29T02:38:56.481Z,16.90
2022-10-29T02:41:24.177Z,16.90
2022-10-29T02:43:51.917Z,16.70
2022-10-29T02:46:21.233Z,16.80
2022-10-29T02:48:49.120Z,17.00
2022-10-29T02:51:17.837Z,17.00
2022-10-29T02:53:46.856Z,17.10
2022-10-29T02:56:14.556Z,17.30
2022-10-29T02:58:42.266Z,17.10
2022-10-29T03:01:10.039Z,17.10
2022-10-29T03:03:37.855Z,17.30
2022-10-29T03:06:06.038Z,17.20
2022-10-29T03:08:33.726Z,17.10
2022-10-29T03:11:02.738Z,17.10
2022-10-29T03:13:30.509Z,17.20
2022-10-29T03:15:58.254Z,17.20
2022-10-29T03:18:25.963Z,17.30
2022-10-29T03:20:53.780Z,17.30
2022-10-29T03:23:22.061Z,17.10
2022-10-29T03:25:55.521Z,17.10
2022-10-29T03:28:27.670Z,17.30
2022-10-29T03:30:55.379Z,17.10
2022-10-29T03:33:23.118Z,16.90
2022-10-29T03:35:50.853Z,17.00
2022-10-29T03:38:18.548Z,17.10
2022-10-29T03:40:46.302Z,17.10
2022-10-29T03:43:14.062Z,17.20
2022-10-29T03:45:43.094Z,17.40
2022-10-29T03:48:10.787Z,17.10
2022-10-29T03:50:44.680Z,17.30
2022-10-29T03:53:12.551Z,16.60
2022-10-29T03:55:40.244Z,17.20
2022-10-29T03:58:07.936Z,16.80
2022-10-29T04:00:35.635Z,17.00
2022-10-29T04:03:04.833Z,17.00
2022-10-29T04:05:32.526Z,17.00
2022-10-29T04:08:00.219Z,16.90
2022-10-29T04:10:27.923Z,16.40
2022-10-29T04:12:55.941Z,16.80
2022-10-29T04:15:23.818Z,16.80
2022-10-29T04:17:51.869Z,16.50
2022-10-29T04:21:03.135Z,16.80
2022-10-29T04:24:48.626Z,16.60
2022-10-29T04:28:48.905Z,16.70
2022-10-29T04:31:16.679Z,16.70
2022-10-29T04:33:44.414Z,16.80
2022-10-29T04:36:13.535Z,16.60
2022-10-29T04:38:41.278Z,16.60
2022-10-29T04:41:08.939Z,16.60
2022-10-29T04:43:36.618Z,16.70
2022-10-29T04:46:04.379Z,16.70
2022-10-29T04:48:32.057Z,16.70
2022-10-29T04:50:59.764Z,16.60
2022-10-29T04:53:28.901Z,16.60
2022-10-29T04:56:01.117Z,16.60
2022-10-29T04:58:29.208Z,16.80
2022-10-29T05:01:02.260Z,16.60
2022-10-29T05:03:30.105Z,16.80
2022-10-29T05:05:57.859Z,16.50
2022-10-29T05:08:25.554Z,16.70
2022-10-29T05:10:54.606Z,16.80
2022-10-29T05:13:22.334Z,16.50
2022-10-29T05:15:53.577Z,16.60
2022-10-29T05:18:21.569Z,16.60
2022-10-29T05:20:49.361Z,16.60
2022-10-29T05:23:17.033Z,16.40
2022-10-29T05:25:48.927Z,16.40
2022-10-29T05:28:19.951Z,16.40
2022-10-29T05:30:48.231Z,16.30
2022-10-29T05:33:17.978Z,16.30
2022-10-29T05:35:45.949Z,16.20
2022-10-29T05:38:14.586Z,16.30
2022-10-29T05:40:44.787Z,16.30
2022-10-29T05:43:13.278Z,16.20
2022-10-29T05:45:42.951Z,16.20
2022-10-29T05:50:45.394Z,16.20
2022-10-29T05:53:14.856Z,16.30
2022-10-29T05:55:43.302Z,16.30
2022-10-29T05:58:13.384Z,16.30
2022-10-29T06:00:44.465Z,16.30
2022-10-29T06:03:14.520Z,16.40
2022-10-29T06:05:42.643Z,16.20
2022-10-29T06:08:10.669Z,16.30
2022-10-29T06:10:38.480Z,16.20
2022-10-29T06:13:11.808Z,16.40
2022-10-29T06:15:39.840Z,16.40
2022-10-29T06:18:09.119Z,16.20
2022-10-29T06:20:37.667Z,16.20
2022-10-29T06:23:05.842Z,16.10
2022-10-29T06:25:33.762Z,16.30
2022-10-29T06:28:02.632Z,16.00
2022-10-29T06:30:30.937Z,16.30
2022-10-29T06:32:59.171Z,16.40
2022-10-29T06:35:28.786Z,16.20
2022-10-29T06:37:56.816Z,16.40
2022-10-29T06:40:25.105Z,16.40
2022-10-29T06:42:59.910Z,16.10
2022-10-29T06:45:27.904Z,16.50
2022-10-29T06:47:55.831Z,16.50
2022-10-29T06:50:23.806Z,16.50
2022-10-29T06:53:00.557Z,16.60
2022-10-29T06:55:28.877Z,16.10
2022-10-29T06:58:01.596Z,16.60
2022-10-29T07:00:30.212Z,16.60
2022-10-29T07:02:58.623Z,16.60
2022-10-29T07:05:26.987Z,16.40
2022-10-29T07:07:57.348Z,16.70
2022-10-29T07:10:28.528Z,17.00
2022-10-29T07:12:56.527Z,17.20
2022-10-29T07:15:27.580Z,17.00
2022-10-29T07:17:59.240Z,16.90
2022-10-29T07:20:27.671Z,17.40
2022-10-29T07:22:55.467Z,17.80
2022-10-29T07:25:23.332Z,18.00
2022-10-29T07:27:52.599Z,18.00
2022-10-29T07:30:20.865Z,17.90
2022-10-29T07:32:48.635Z,17.90
2022-10-29T07:35:16.477Z,18.20
2022-10-29T07:37:44.180Z,18.30
2022-10-29T07:40:12.991Z,18.00
2022-10-29T07:42:40.712Z,18.00
2022-10-29T07:45:10.791Z,18.10
2022-10-29T07:47:38.586Z,18.20
2022-10-29T07:50:06.994Z,18.30
2022-10-29T07:52:34.679Z,18.20
2022-10-29T07:55:02.761Z,18.30
2022-10-29T07:57:30.546Z,18.60
2022-10-29T07:59:58.251Z,18.40
2022-10-29T08:02:27.390Z,18.30
2022-10-29T08:04:55.122Z,18.10
2022-10-29T08:07:22.809Z,18.50
2022-10-29T08:09:50.501Z,18.90
2022-10-29T08:12:18.198Z,18.80
2022-10-29T08:14:45.876Z,19.00
2022-10-29T08:17:13.641Z,19.00
2022-10-29T08:19:42.685Z,18.80
2022-10-29T08:22:10.485Z,18.80
2022-10-29T08:24:38.210Z,18.90
2022-10-29T08:27:05.985Z,18.90
2022-10-29T08:29:33.781Z,18.80
2022-10-29T08:32:01.515Z,18.90
2022-10-29T08:34:29.310Z,19.00
2022-10-29T08:36:58.311Z,19.10
2022-10-29T08:39:26.007Z,19.00
2022-10-29T08:42:03.239Z,19.00
2022-10-29T08:44:58.975Z,19.60
2022-10-29T08:47:26.795Z,19.40
2022-10-29T08:50:04.996Z,19.40
2022-10-29T08:52:44.332Z,19.20
2022-10-29T08:55:19.635Z,19.50
2022-10-29T08:57:52.990Z,19.50
2022-10-29T09:00:23.445Z,19.70
2022-10-29T09:02:56.788Z,20.00
2022-10-29T09:05:29.874Z,20.30
2022-10-29T09:08:18.789Z,20.20
2022-10-29T09:10:52.212Z,20.10
2022-10-29T09:13:33.840Z,20.00
2022-10-29T09:16:22.202Z,20.30
2022-10-29T09:19:03.841Z,20.30
2022-10-29T09:21:38.526Z,20.40
2022-10-29T09:24:15.338Z,20.50
2022-10-29T09:26:58.179Z,20.70
2022-10-29T09:29:50.539Z,20.60
2022-10-29T09:32:23.794Z,20.90
2022-10-29T09:34:53.865Z,21.30
2022-10-29T09:37:29.173Z,21.60
2022-10-29T09:39:59.489Z,22.10
2022-10-29T09:42:35.230Z,23.00
2022-10-29T09:45:04.935Z,24.00
2022-10-29T09:47:43.049Z,24.90
2022-10-29T09:50:20.358Z,25.80
2022-10-29T09:52:50.448Z,26.40
2022-10-29T09:55:24.271Z,26.90
2022-10-29T09:57:52.665Z,27.60
2022-10-29T10:00:23.455Z,27.90
2022-10-29T10:02:58.236Z,28.00
2022-10-29T10:05:28.426Z,28.40
2022-10-29T10:08:07.819Z,28.50
2022-10-29T10:10:40.087Z,28.30
2022-10-29T10:13:17.019Z,28.10
2022-10-29T10:15:52.985Z,27.60
2022-10-29T10:18:23.015Z,26.40
2022-10-29T10:21:06.547Z,26.10
2022-10-29T10:23:51.610Z,25.70
2022-10-29T10:26:36.362Z,25.30
2022-10-29T10:29:16.169Z,25.40
2022-10-29T10:31:45.399Z,25.60
2022-10-29T10:34:19.234Z,26.10
2022-10-29T10:36:50.965Z,26.50
2022-10-29T10:39:25.637Z,26.50
2022-10-29T10:41:56.967Z,26.60
2022-10-29T10:44:25.144Z,27.00
2022-10-29T10:46:55.878Z,27.30
2022-10-29T10:49:34.260Z,27.70
2022-10-29T10:52:06.335Z,27.80
2022-10-29T10:54:37.752Z,27.80
2022-10-29T10:57:22.690Z,27.40
2022-10-29T10:59:59.663Z,27.20
2022-10-29T11:02:35.412Z,27.40
2022-10-29T11:05:13.031Z,27.50
2022-10-29T11:07:44.393Z,27.30
2022-10-29T11:10:14.756Z,27.40
2022-10-29T11:12:48.593Z,27.50
2022-10-29T11:15:22.778Z,27.70
2022-10-29T11:17:56.097Z,27.70
2022-10-29T11:20:27.794Z,27.20
2022-10-29T11:23:09.844Z,27.00
2022-10-29T11:25:45.286Z,27.10
2022-10-29T11:28:24.347Z,27.00
2022-10-29T11:30:57.143Z,26.90
2022-10-29T11:33:36.659Z,26.60
2022-10-29T11:36:13.089Z,26.30
2022-10-29T11:38:45.824Z,25.90
2022-10-29T11:41:28.430Z,25.70
2022-10-29T11:43:57.583Z,25.40
2022-10-29T11:46:33.811Z,25.10
2022-10-29T11:49:17.189Z,24.90
2022-10-29T11:51:52.181Z,24.60
2022-10-29T11:54:37.719Z,24.30
2022-10-29T11:57:13.438Z,24.10
2022-10-29T11:59:58.592Z,23.80
2022-10-29T12:02:40.370Z,23.60
2022-10-29T12:05:20.906Z,23.60
2022-10-29T12:08:07.977Z,23.50
2022-10-29T12:10:46.859Z,23.50
2022-10-29T12:13:26.806Z,23.50
2022-10-29T12:16:08.646Z,23.50
2022-10-29T12:18:47.179Z,23.50
2022-10-29T12:21:22.909Z,23.60
2022-10-29T12:24:00.962Z,23.60
2022-10-29T12:26:37.105Z,23.70
2022-10-29T12:29:12.246Z,23.50
2022-10-29T12:31:50.017Z,23.50
2022-10-29T12:34:24.731Z,23.50
2022-10-29T12:37:00.062Z,23.30
2022-10-29T12:39:32.087Z,23.20
2022-10-29T12:42:04.078Z,23.30
2022-10-29T12:44:44.855Z,23.30
2022-10-29T12:47:18.966Z,23.20
2022-10-29T12:49:57.790Z,23.20
2022-10-29T12:52:33.888Z,23.30
2022-10-29T12:55:03.470Z,23.30
2022-10-29T12:57:33.185Z,23.20
2022-10-29T13:00:44.758Z,23.20
2022-10-29T13:03:14.129Z,23.10
2022-10-29T13:05:43.583Z,23.20
2022-10-29T13:08:30.021Z,23.60
2022-10-29T13:10:58.526Z,23.50
2022-10-29T13:13:53.353Z,23.80
2022-10-29T13:16:25.282Z,24.00
2022-10-29T13:19:18.050Z,24.20
2022-10-29T13:22:03.416Z,24.30
2022-10-29T13:24:32.390Z,24.10
2022-10-29T13:27:09.479Z,24.10
2022-10-29T13:29:51.581Z,23.90
2022-10-29T13:32:36.600Z,23.80
2022-10-29T13:35:31.854Z,23.70
2022-10-29T13:38:15.782Z,23.70
2022-10-29T13:41:12.020Z,23.60
2022-10-29T13:43:42.197Z,23.60
2022-10-29T13:46:32.302Z,23.40
2022-10-29T13:49:03.616Z,23.40
2022-10-29T13:51:41.719Z,23.30
2022-10-29T13:54:17.259Z,23.40
2022-10-29T13:56:47.440Z,23.50
2022-10-29T13:59:21.954Z,23.40
2022-10-29T14:02:00.262Z,23.50
2022-10-29T14:04:35.058Z,23.20
2022-10-29T14:07:12.845Z,23.10
2022-10-29T14:09:46.860Z,23.00
2022-10-29T14:12:19.871Z,23.00
2022-10-29T14:14:56.639Z,23.00
2022-10-29T14:17:24.448Z,22.90
2022-10-29T14:19:53.409Z,22.90
2022-10-29T14:22:36.708Z,22.70
2022-10-29T14:25:27.298Z,22.70
2022-10-29T14:28:25.877Z,22.70
2022-10-29T14:31:02.673Z,22.70
2022-10-29T14:33:32.345Z,22.50
2022-10-29T14:36:06.453Z,22.60
2022-10-29T14:38:42.379Z,22.40
2022-10-29T14:41:10.892Z,22.60
2022-10-29T14:43:39.314Z,22.90
2022-10-29T14:46:24.439Z,22.70
2022-10-29T14:49:00.733Z,22.60
2022-10-29T14:51:29.050Z,22.50
2022-10-29T14:54:03.051Z,22.40
2022-10-29T14:56:34.979Z,22.20
2022-10-29T14:59:08.298Z,22.40
2022-10-29T15:01:46.861Z,22.30
2022-10-29T15:04:23.848Z,22.30
2022-10-29T15:06:51.817Z,22.00
2022-10-29T15:09:27.952Z,22.10
2022-10-29T15:12:03.827Z,22.10
2022-10-29T15:14:37.625Z,22.20
2022-10-29T15:17:15.775Z,22.10
2022-10-29T15:19:45.962Z,22.10
2022-10-29T15:22:21.251Z,22.00
2022-10-29T15:24:52.370Z,21.90
2022-10-29T15:27:21.828Z,21.90
2022-10-29T15:29:50.238Z,21.70
2022-10-29T15:32:18.866Z,21.70
2022-10-29T15:34:49.571Z,21.60
2022-10-29T15:37:27.421Z,21.50
2022-10-29T15:40:10.135Z,21.40
2022-10-29T15:42:38.382Z,21.30
2022-10-29T15:45:34.219Z,21.40
2022-10-29T15:48:29.721Z,21.60
2022-10-29T15:50:58.338Z,21.20
2022-10-29T15:53:26.022Z,20.80
2022-10-29T15:55:55.070Z,21.20
2022-10-29T15:58:24.088Z,21.20
2022-10-29T16:00:52.916Z,21.10
2022-10-29T16:03:22.315Z,21.20
2022-10-29T16:05:52.288Z,20.90
2022-10-29T16:08:26.651Z,21.30
2022-10-29T16:10:56.514Z,20.90
2022-10-29T16:13:25.687Z,20.80
2022-10-29T16:15:53.473Z,20.40
2022-10-29T16:18:21.532Z,20.30
2022-10-29T16:20:50.922Z,20.20
2022-10-29T16:23:18.618Z,20.10
2022-10-29T16:25:46.314Z,19.90
2022-10-29T16:28:15.342Z,19.70
2022-10-29T16:30:43.278Z,19.80
2022-10-29T16:33:11.509Z,19.90
2022-10-29T16:35:39.191Z,19.90
2022-10-29T16:38:06.865Z,19.80
2022-10-29T16:40:34.598Z,19.90
2022-10-29T16:43:02.474Z,19.90
2022-10-29T16:45:32.598Z,19.70
2022-10-29T16:48:00.927Z,19.40
2022-10-29T16:50:30.486Z,19.70
2022-10-29T16:52:59.231Z,19.90
2022-10-29T16:55:27.330Z,19.80
2022-10-29T16:57:55.641Z,19.80
2022-10-29T17:00:25.701Z,20.00
2022-10-29T17:02:55.392Z,19.80
2022-10-29T17:05:23.334Z,19.60
2022-10-29T17:07:53.901Z,19.70
2022-10-29T17:10:22.566Z,19.70
2022-10-29T17:12:50.316Z,19.70
2022-10-29T17:15:18.246Z,19.60
2022-10-29T17:17:46.594Z,19.80
2022-10-29T17:20:15.883Z,19.40
2022-10-29T17:22:43.733Z,19.70
2022-10-29T17:25:12.165Z,19.60
2022-10-29T17:27:40.416Z,19.80
2022-10-29T17:30:09.819Z,19.70
2022-10-29T17:32:37.923Z,19.30
2022-10-29T17:35:06.261Z,19.20
2022-10-29T17:37:35.470Z,19.00
2022-10-29T17:40:06.922Z,19.30
2022-10-29T17:42:35.942Z,19.30
2022-10-29T17:45:03.752Z,19.40
2022-10-29T17:47:31.615Z,19.20
2022-10-29T17:49:59.444Z,19.10
2022-10-29T17:52:27.208Z,18.80
2022-10-29T17:54:56.327Z,19.00
2022-10-29T17:57:24.116Z,19.10
2022-10-29T17:59:51.870Z,19.30
2022-10-29T18:02:19.754Z,19.20
2022-10-29T18:04:47.623Z,19.10
2022-10-29T18:07:15.370Z,18.80
2022-10-29T18:09:43.129Z,18.80
2022-10-29T18:12:12.407Z,18.90
2022-10-29T18:14:40.171Z,18.80
2022-10-29T18:17:07.957Z,18.70
2022-10-29T18:19:35.893Z,18.60
2022-10-29T18:22:03.683Z,18.60
2022-10-29T18:24:31.799Z,18.50
2022-10-29T18:26:59.532Z,18.30
2022-10-29T18:29:28.561Z,18.20
2022-10-29T18:31:56.438Z,18.10
2022-10-29T18:34:24.225Z,18.50
2022-10-29T18:36:51.995Z,18.00
2022-10-29T18:39:19.738Z,18.30
2022-10-29T18:41:47.513Z,18.40
2022-10-29T18:44:15.341Z,18.10
2022-10-29T18:46:44.401Z,18.20
2022-10-29T18:49:12.953Z,18.20
2022-10-29T18:51:40.908Z,18.20
2022-10-29T18:54:10.732Z,18.20
2022-10-29T18:56:38.540Z,17.80
2022-10-29T18:59:06.619Z,17.80
2022-10-29T19:01:35.809Z,18.00
2022-10-29T19:04:06.674Z,18.10
2022-10-29T19:06:36.229Z,17.80
2022-10-29T19:09:06.226Z,18.20
2022-10-29T19:11:34.170Z,18.20
2022-10-29T19:14:04.050Z,18.20
2022-10-29T19:16:33.340Z,18.00
2022-10-29T19:19:03.360Z,18.10
2022-10-29T19:21:35.366Z,18.30
2022-10-29T19:24:03.362Z,18.10
2022-10-29T19:26:33.405Z,18.20
2022-10-29T19:29:02.463Z,18.20
2022-10-29T19:31:32.080Z,18.10
2022-10-29T19:34:02.587Z,18.00
2022-10-29T19:36:39.352Z,18.00
2022-10-29T19:39:07.329Z,18.20
2022-10-29T19:41:35.301Z,18.20
2022-10-29T19:44:03.967Z,18.00
2022-10-29T19:46:31.824Z,18.10
2022-10-29T19:49:00.590Z,18.10
2022-10-29T19:51:28.740Z,18.10
2022-10-29T19:54:01.359Z,18.10
2022-10-29T19:56:29.165Z,18.10
2022-10-29T19:58:56.959Z,18.10
2022-10-29T20:01:24.759Z,17.50
2022-10-29T20:03:52.514Z,17.60
2022-10-29T20:06:20.261Z,17.70
2022-10-29T20:08:48.007Z,17.70
2022-10-29T20:11:17.195Z,17.50
2022-10-29T20:13:45.022Z,17.70
2022-10-29T20:16:17.094Z,17.60
2022-10-29T20:18:45.210Z,17.10
2022-10-29T20:21:13.531Z,17.30
2022-10-29T20:23:41.610Z,17.40
2022-10-29T20:26:10.136Z,17.00
2022-10-29T20:28:39.380Z,17.20
2022-10-29T20:31:15.157Z,17.50
2022-10-29T20:33:42.857Z,17.60
2022-10-29T20:36:10.798Z,17.40
2022-10-29T20:38:38.691Z,17.80
2022-10-29T20:41:06.537Z,17.60
2022-10-29T20:43:34.512Z,17.70
2022-10-29T20:46:04.682Z,17.60
2022-10-29T20:48:32.687Z,17.30
2022-10-29T20:51:00.480Z,17.60
2022-10-29T20:53:28.314Z,17.50
2022-10-29T20:55:56.217Z,17.90
2022-10-29T20:58:24.091Z,17.80
2022-10-29T21:00:51.906Z,17.50
2022-10-29T21:03:21.178Z,17.00
2022-10-29T21:05:48.878Z,17.60
2022-10-29T21:08:16.693Z,17.40
2022-10-29T21:10:44.423Z,17.50
2022-10-29T21:13:12.183Z,17.40
2022-10-29T21:15:39.999Z,17.30
2022-10-29T21:18:07.732Z,17.50
2022-10-29T21:20:36.929Z,17.90
2022-10-29T21:23:04.632Z,17.80
2022-10-29T21:25:32.332Z,17.70
2022-10-29T21:28:00.385Z,17.50
2022-10-29T21:30:28.459Z,17.60
2022-10-29T21:32:56.433Z,17.70
2022-10-29T21:35:24.176Z,17.60
2022-10-29T21:37:53.175Z,17.30
2022-10-29T21:40:20.868Z,17.60
2022-10-29T21:42:48.579Z,17.80
2022-10-29T21:45:16.480Z,17.30
2022-10-29T21:47:44.183Z,17.50
2022-10-29T21:50:12.112Z,17.60
2022-10-29T21:52:40.369Z,17.40
2022-10-29T21:55:09.827Z,17.30
2022-10-29T21:57:37.578Z,17.40
2022-10-29T22:00:10.711Z,17.20
2022-10-29T22:02:38.422Z,17.20
2022-10-29T22:05:06.788Z,17.60
2022-10-29T22:07:34.821Z,17.30
2022-10-29T22:10:02.923Z,17.20
2022-10-29T22:12:32.182Z,17.30
2022-10-29T22:14:59.863Z,17.40
2022-10-29T22:17:28.474Z,17.30
2022-10-29T22:19:56.176Z,17.30
2022-10-29T22:22:23.965Z,17.40
2022-10-29T22:24:51.636Z,17.30
2022-10-29T22:27:19.314Z,17.40
2022-10-29T22:29:52.068Z,17.00
2022-10-29T22:32:22.189Z,16.90
2022-10-29T22:34:49.920Z,17.10
2022-10-29T22:37:17.603Z,17.00
2022-10-29T22:39:46.709Z,16.70
2022-10-29T22:42:14.452Z,16.80
2022-10-29T22:44:42.239Z,17.10
2022-10-29T22:47:11.263Z,16.90
2022-10-29T22:49:38.938Z,16.80
2022-10-29T22:52:06.638Z,16.80
2022-10-29T22:54:34.324Z,16.80
2022-10-29T22:57:02.025Z,16.90
2022-10-29T22:59:29.694Z,16.60
2022-10-29T23:01:57.465Z,16.30
2022-10-29T23:04:26.879Z,16.80
2022-10-29T23:06:57.925Z,16.20
2022-10-29T23:09:28.607Z,16.60
2022-10-29T23:11:56.282Z,16.30
2022-10-29T23:14:23.989Z,16.30
2022-10-29T23:16:51.686Z,16.50
2022-10-29T23:19:19.363Z,16.50
2022-10-29T23:21:49.001Z,16.50
2022-10-29T23:24:16.675Z,16.60
2022-10-29T23:26:44.346Z,16.50
2022-10-29T23:29:12.078Z,16.60
2022-10-29T23:31:39.738Z,16.80
2022-10-29T23:34:07.788Z,16.60
2022-10-29T23:36:35.458Z,16.60
2022-10-29T23:39:04.781Z,16.70
2022-10-29T23:41:32.557Z,16.80
2022-10-29T23:44:00.565Z,16.50
2022-10-29T23:46:28.247Z,16.40
2022-10-29T23:48:56.064Z,16.40
2022-10-29T23:51:23.949Z,16.60
2022-10-29T23:53:54.851Z,16.40
2022-10-29T23:56:26.575Z,16.80
2022-10-29T23:58:54.324Z,16.60
